Home

Weather

KSLC Current Conditions

KSLC 210054Z 20005KT 10SM FEW080 BKN110 BKN180 19/08 A2991 RMK AO2 SLP090 VIRGA SH DSNT NW T01940083

KSLC Aviation Forecast

TAF AMD KSLC 202146Z 2022/2124 16018G34KT P6SM -RA VCTS BKN070CB BKN100 FM202300 18012KT P6SM -SHRA SCT070 BKN100 FM210300 16008KT P6SM SCT080 BKN150 FM211800 32007KT P6SM SCT090 SCT120


67° F
Mostly Cloudy
Mostly Cloudy

Partly Cloudy
Sunday
Partly Cloudy
High 78°/Low 54°
20%
Clear
Monday
Clear
High 80°/Low 58°
20%
Chance of Rain
Tuesday
Chance of Rain
High 74°/Low 53°
30%
Partly Cloudy
Wednesday
Partly Cloudy
High 77°/Low 56°
20%
Chance of a Thunderstorm
Thursday
Chance of a Thunderstorm
High 81°/Low 57°
30%
Clear
Friday
Clear
High 84°/Low 59°
0%